Terminal Aerodrome Forecast
Issued by NWS Knoxville/Tri Cities, TN

Home | Current Version | Previous Version | Text Only | Print | Product List | Glossary On
Versions: 1 2 3 4 5 6 7 8 9 10 11 12 13 14 15 16 17 18 19 20 21 22 23 24 25 26 27 28
000
FTUS44 KMRX 302215 AAB
TAFCHA
TAF AMD
KCHA 302215Z 3022/3118 22008KT P6SM VCTS SCT040CB BKN060 OVC250
      TEMPO 3022/3024 VRB10G20KT 3SM TSRA BR BKN030CB
     FM310000 19004KT 5SM -TSRA BR BKN040CB
     FM310400 00000KT P6SM FEW045 BKN120
     FM311300 18004KT P6SM SCT035 BKN100=

USA.gov is the U.S. government's official web portal to all federal, state and local government web resources and services.